sensor_id;sensor_type;location;lat;lon;timestamp;temperature;humidity
9668;DHT22;4872;48.316;10.650;2023-09-19T04:11:46;16.30;99.90
9668;DHT22;4872;48.316;10.650;2023-09-19T04:14:12;16.30;99.90
9668;DHT22;4872;48.316;10.650;2023-09-19T04:16:39;16.30;99.90
9668;DHT22;4872;48.316;10.650;2023-09-19T04:19:06;16.30;99.90
9668;DHT22;4872;48.316;10.650;2023-09-19T04:21:32;16.20;99.90
9668;DHT22;4872;48.316;10.650;2023-09-19T04:23:59;16.30;99.90
9668;DHT22;4872;48.316;10.650;2023-09-19T04:26:26;16.20;99.90
9668;DHT22;4872;48.316;10.650;2023-09-19T04:28:54;16.10;99.90
9668;DHT22;4872;48.316;10.650;2023-09-19T04:31:21;16.20;99.90
9668;DHT22;4872;48.316;10.650;2023-09-19T04:33:48;16.20;99.90
9668;DHT22;4872;48.316;10.650;2023-09-19T04:36:15;16.20;99.90
9668;DHT22;4872;48.316;10.650;2023-09-19T04:38:42;16.20;99.90
9668;DHT22;4872;48.316;10.650;2023-09-19T04:41:08;16.20;99.90
9668;DHT22;4872;48.316;10.650;2023-09-19T04:43:34;16.80;99.90
9668;DHT22;4872;48.316;10.650;2023-09-19T04:46:02;16.30;99.90
9668;DHT22;4872;48.316;10.650;2023-09-19T04:48:32;16.20;99.90
9668;DHT22;4872;48.316;10.650;2023-09-19T04:51:00;16.20;99.90
9668;DHT22;4872;48.316;10.650;2023-09-19T04:53:27;16.10;99.90
9668;DHT22;4872;48.316;10.650;2023-09-19T04:55:54;16.20;99.90
9668;DHT22;4872;48.316;10.650;2023-09-19T04:58:21;16.10;99.90
9668;DHT22;4872;48.316;10.650;2023-09-19T05:00:48;16.20;99.90
9668;DHT22;4872;48.316;10.650;2023-09-19T05:03:18;16.20;99.90
9668;DHT22;4872;48.316;10.650;2023-09-19T05:05:45;16.20;99.90
9668;DHT22;4872;48.316;10.650;2023-09-19T05:08:12;16.20;99.90
9668;DHT22;4872;48.316;10.650;2023-09-19T05:10:40;16.40;99.90
9668;DHT22;4872;48.316;10.650;2023-09-19T05:13:07;16.30;99.90
9668;DHT22;4872;48.316;10.650;2023-09-19T05:15:33;16.20;99.90
9668;DHT22;4872;48.316;10.650;2023-09-19T05:18:01;16.20;99.90
9668;DHT22;4872;48.316;10.650;2023-09-19T05:20:30;16.30;99.90
9668;DHT22;4872;48.316;10.650;2023-09-19T05:22:59;16.40;99.90
9668;DHT22;4872;48.316;10.650;2023-09-19T05:25:27;16.30;99.90
9668;DHT22;4872;48.316;10.650;2023-09-19T05:27:56;16.30;99.90
9668;DHT22;4872;48.316;10.650;2023-09-19T05:30:24;16.30;99.90
9668;DHT22;4872;48.316;10.650;2023-09-19T05:32:52;16.30;99.90
9668;DHT22;4872;48.316;10.650;2023-09-19T05:35:19;16.30;99.90
9668;DHT22;4872;48.316;10.650;2023-09-19T05:37:49;16.40;99.90
9668;DHT22;4872;48.316;10.650;2023-09-19T05:40:16;16.30;99.90
9668;DHT22;4872;48.316;10.650;2023-09-19T05:42:43;16.70;99.90
9668;DHT22;4872;48.316;10.650;2023-09-19T05:45:10;16.40;99.90
9668;DHT22;4872;48.316;10.650;2023-09-19T05:47:38;16.40;99.90
9668;DHT22;4872;48.316;10.650;2023-09-19T05:50:06;16.40;99.90
9668;DHT22;4872;48.316;10.650;2023-09-19T05:52:34;16.40;99.90
9668;DHT22;4872;48.316;10.650;2023-09-19T05:55:04;16.40;99.90
9668;DHT22;4872;48.316;10.650;2023-09-19T05:57:32;16.30;99.90
9668;DHT22;4872;48.316;10.650;2023-09-19T05:59:59;16.30;99.90
9668;DHT22;4872;48.316;10.650;2023-09-19T06:02:26;16.30;99.90
9668;DHT22;4872;48.316;10.650;2023-09-19T06:04:55;16.30;99.90
9668;DHT22;4872;48.316;10.650;2023-09-19T06:07:22;16.40;99.90
9668;DHT22;4872;48.316;10.650;2023-09-19T06:09:48;16.50;99.90
9668;DHT22;4872;48.316;10.650;2023-09-19T06:12:17;16.50;99.90
9668;DHT22;4872;48.316;10.650;2023-09-19T06:14:43;16.50;99.90
9668;DHT22;4872;48.316;10.650;2023-09-19T06:17:10;16.50;99.90
9668;DHT22;4872;48.316;10.650;2023-09-19T06:19:37;16.50;99.90
9668;DHT22;4872;48.316;10.650;2023-09-19T06:22:04;16.50;99.90
9668;DHT22;4872;48.316;10.650;2023-09-19T06:24:30;16.60;99.90
9668;DHT22;4872;48.316;10.650;2023-09-19T06:26:57;16.60;99.90
9668;DHT22;4872;48.316;10.650;2023-09-19T06:29:28;16.70;99.90
9668;DHT22;4872;48.316;10.650;2023-09-19T06:31:55;16.60;99.90
9668;DHT22;4872;48.316;10.650;2023-09-19T06:34:22;16.70;99.90
9668;DHT22;4872;48.316;10.650;2023-09-19T06:36:48;16.70;99.90
9668;DHT22;4872;48.316;10.650;2023-09-19T06:39:15;16.70;99.90
9668;DHT22;4872;48.316;10.650;2023-09-19T06:41:42;16.80;99.90
9668;DHT22;4872;48.316;10.650;2023-09-19T06:44:10;16.90;99.90
9668;DHT22;4872;48.316;10.650;2023-09-19T06:46:38;17.00;99.90
9668;DHT22;4872;48.316;10.650;2023-09-19T06:49:06;17.00;99.90
9668;DHT22;4872;48.316;10.650;2023-09-19T06:51:33;17.00;99.90
9668;DHT22;4872;48.316;10.650;2023-09-19T06:54:01;17.10;99.90
9668;DHT22;4872;48.316;10.650;2023-09-19T06:56:30;17.10;99.90
9668;DHT22;4872;48.316;10.650;2023-09-19T06:58:57;17.10;99.90
9668;DHT22;4872;48.316;10.650;2023-09-19T07:01:24;17.20;99.90
9668;DHT22;4872;48.316;10.650;2023-09-19T07:03:52;17.10;99.90
9668;DHT22;4872;48.316;10.650;2023-09-19T07:06:19;17.10;99.90
9668;DHT22;4872;48.316;10.650;2023-09-19T07:08:46;17.10;99.90
9668;DHT22;4872;48.316;10.650;2023-09-19T07:11:12;17.10;99.90
9668;DHT22;4872;48.316;10.650;2023-09-19T07:13:39;17.20;99.90
9668;DHT22;4872;48.316;10.650;2023-09-19T07:16:06;17.30;99.90
9668;DHT22;4872;48.316;10.650;2023-09-19T07:18:34;17.40;99.90
9668;DHT22;4872;48.316;10.650;2023-09-19T07:21:03;17.30;99.90
9668;DHT22;4872;48.316;10.650;2023-09-19T07:23:31;17.50;99.90
9668;DHT22;4872;48.316;10.650;2023-09-19T07:26:00;17.50;99.90
9668;DHT22;4872;48.316;10.650;2023-09-19T07:28:27;17.60;99.90
9668;DHT22;4872;48.316;10.650;2023-09-19T07:30:54;17.70;99.90
9668;DHT22;4872;48.316;10.650;2023-09-19T07:33:20;17.70;99.90
9668;DHT22;4872;48.316;10.650;2023-09-19T07:35:47;17.90;99.90
9668;DHT22;4872;48.316;10.650;2023-09-19T07:38:15;17.80;99.90
9668;DHT22;4872;48.316;10.650;2023-09-19T07:40:43;18.30;99.90
9668;DHT22;4872;48.316;10.650;2023-09-19T07:43:10;17.80;99.90
9668;DHT22;4872;48.316;10.650;2023-09-19T07:45:36;18.30;99.90
9668;DHT22;4872;48.316;10.650;2023-09-19T07:48:04;18.10;99.90
9668;DHT22;4872;48.316;10.650;2023-09-19T07:50:33;18.20;99.90
9668;DHT22;4872;48.316;10.650;2023-09-19T07:53:02;18.30;99.90
9668;DHT22;4872;48.316;10.650;2023-09-19T07:55:31;18.40;99.90
9668;DHT22;4872;48.316;10.650;2023-09-19T07:57:59;18.50;99.90
9668;DHT22;4872;48.316;10.650;2023-09-19T08:00:26;18.60;99.90
9668;DHT22;4872;48.316;10.650;2023-09-19T08:02:52;18.70;99.90
9668;DHT22;4872;48.316;10.650;2023-09-19T08:05:19;18.70;99.90
9668;DHT22;4872;48.316;10.650;2023-09-19T08:07:47;18.70;99.90
9668;DHT22;4872;48.316;10.650;2023-09-19T08:10:15;18.70;99.90
9668;DHT22;4872;48.316;10.650;2023-09-19T08:12:47;18.80;99.90
9668;DHT22;4872;48.316;10.650;2023-09-19T08:15:14;18.70;99.90
9668;DHT22;4872;48.316;10.650;2023-09-19T08:17:42;18.60;99.90
9668;DHT22;4872;48.316;10.650;2023-09-19T08:20:10;18.80;99.90
9668;DHT22;4872;48.316;10.650;2023-09-19T08:22:43;19.00;99.90
9668;DHT22;4872;48.316;10.650;2023-09-19T08:25:11;19.20;99.90
9668;DHT22;4872;48.316;10.650;2023-09-19T08:27:38;19.20;99.90
9668;DHT22;4872;48.316;10.650;2023-09-19T08:30:07;19.10;99.90
9668;DHT22;4872;48.316;10.650;2023-09-19T08:32:34;19.00;99.90
9668;DHT22;4872;48.316;10.650;2023-09-19T08:35:01;19.10;99.90
9668;DHT22;4872;48.316;10.650;2023-09-19T08:37:27;19.10;99.90
9668;DHT22;4872;48.316;10.650;2023-09-19T08:39:54;19.10;99.90
9668;DHT22;4872;48.316;10.650;2023-09-19T08:42:21;19.10;99.80
9668;DHT22;4872;48.316;10.650;2023-09-19T08:44:50;19.10;99.80
9668;DHT22;4872;48.316;10.650;2023-09-19T08:47:26;19.10;99.90
9668;DHT22;4872;48.316;10.650;2023-09-19T08:50:03;18.80;99.90
9668;DHT22;4872;48.316;10.650;2023-09-19T08:52:42;18.90;99.90
9668;DHT22;4872;48.316;10.650;2023-09-19T08:55:12;19.00;99.90
9668;DHT22;4872;48.316;10.650;2023-09-19T08:57:46;19.10;99.70
9668;DHT22;4872;48.316;10.650;2023-09-19T09:00:15;19.20;99.00
9668;DHT22;4872;48.316;10.650;2023-09-19T09:02:45;19.10;99.20
9668;DHT22;4872;48.316;10.650;2023-09-19T09:05:14;19.20;99.30
9668;DHT22;4872;48.316;10.650;2023-09-19T09:07:42;19.10;99.30
9668;DHT22;4872;48.316;10.650;2023-09-19T09:10:10;19.10;99.30
9668;DHT22;4872;48.316;10.650;2023-09-19T09:12:37;19.00;99.60
9668;DHT22;4872;48.316;10.650;2023-09-19T09:15:07;19.00;99.60
9668;DHT22;4872;48.316;10.650;2023-09-19T09:17:37;19.10;99.60
9668;DHT22;4872;48.316;10.650;2023-09-19T09:20:06;19.20;99.90
9668;DHT22;4872;48.316;10.650;2023-09-19T09:22:35;19.20;99.90
9668;DHT22;4872;48.316;10.650;2023-09-19T09:25:05;19.40;99.70
9668;DHT22;4872;48.316;10.650;2023-09-19T09:27:32;19.60;99.80
9668;DHT22;4872;48.316;10.650;2023-09-19T09:29:59;19.60;99.70
9668;DHT22;4872;48.316;10.650;2023-09-19T09:32:27;19.70;99.90
9668;DHT22;4872;48.316;10.650;2023-09-19T09:34:56;19.70;99.00
9668;DHT22;4872;48.316;10.650;2023-09-19T09:37:25;19.70;99.30
9668;DHT22;4872;48.316;10.650;2023-09-19T09:39:53;19.50;98.70
9668;DHT22;4872;48.316;10.650;2023-09-19T09:42:31;19.40;98.80
9668;DHT22;4872;48.316;10.650;2023-09-19T09:45:17;19.30;99.00
9668;DHT22;4872;48.316;10.650;2023-09-19T09:47:46;19.20;98.90
9668;DHT22;4872;48.316;10.650;2023-09-19T09:50:25;19.10;99.00
9668;DHT22;4872;48.316;10.650;2023-09-19T09:52:56;19.10;98.70
9668;DHT22;4872;48.316;10.650;2023-09-19T09:56:00;19.20;98.80
9668;DHT22;4872;48.316;10.650;2023-09-19T09:58:28;19.30;98.30
9668;DHT22;4872;48.316;10.650;2023-09-19T10:00:56;19.40;98.10
9668;DHT22;4872;48.316;10.650;2023-09-19T10:03:32;19.40;98.40
9668;DHT22;4872;48.316;10.650;2023-09-19T10:06:04;19.60;98.10
9668;DHT22;4872;48.316;10.650;2023-09-19T10:08:59;19.60;97.80
9668;DHT22;4872;48.316;10.650;2023-09-19T10:11:40;19.60;98.00
9668;DHT22;4872;48.316;10.650;2023-09-19T10:14:10;19.60;97.30
9668;DHT22;4872;48.316;10.650;2023-09-19T10:16:40;19.60;97.80
9668;DHT22;4872;48.316;10.650;2023-09-19T10:19:10;19.40;98.00
9668;DHT22;4872;48.316;10.650;2023-09-19T10:21:42;19.30;98.00
9668;DHT22;4872;48.316;10.650;2023-09-19T10:24:11;19.60;98.40
9668;DHT22;4872;48.316;10.650;2023-09-19T10:26:39;19.30;98.80
9668;DHT22;4872;48.316;10.650;2023-09-19T10:29:09;19.40;98.30
9668;DHT22;4872;48.316;10.650;2023-09-19T10:31:37;19.30;98.60
9668;DHT22;4872;48.316;10.650;2023-09-19T10:34:07;19.40;98.50
9668;DHT22;4872;48.316;10.650;2023-09-19T10:36:36;19.50;98.80
9668;DHT22;4872;48.316;10.650;2023-09-19T10:39:05;19.70;97.50
9668;DHT22;4872;48.316;10.650;2023-09-19T10:41:35;19.80;97.70
9668;DHT22;4872;48.316;10.650;2023-09-19T10:44:04;19.80;96.70
9668;DHT22;4872;48.316;10.650;2023-09-19T10:46:32;19.80;96.50
9668;DHT22;4872;48.316;10.650;2023-09-19T10:48:59;19.90;96.60
9668;DHT22;4872;48.316;10.650;2023-09-19T10:51:29;20.20;96.90
9668;DHT22;4872;48.316;10.650;2023-09-19T10:54:01;19.80;96.70
9668;DHT22;4872;48.316;10.650;2023-09-19T10:56:32;19.70;96.90
9668;DHT22;4872;48.316;10.650;2023-09-19T10:59:10;19.70;97.10
9668;DHT22;4872;48.316;10.650;2023-09-19T11:01:42;19.90;97.00
9668;DHT22;4872;48.316;10.650;2023-09-19T11:04:26;19.70;97.00
9668;DHT22;4872;48.316;10.650;2023-09-19T11:07:03;19.70;97.10
9668;DHT22;4872;48.316;10.650;2023-09-19T11:09:44;19.70;97.00
9668;DHT22;4872;48.316;10.650;2023-09-19T11:12:12;19.70;97.10
9668;DHT22;4872;48.316;10.650;2023-09-19T11:14:41;19.60;97.20
9668;DHT22;4872;48.316;10.650;2023-09-19T11:17:40;19.70;97.40
9668;DHT22;4872;48.316;10.650;2023-09-19T11:20:26;19.70;98.00
9668;DHT22;4872;48.316;10.650;2023-09-19T11:23:18;19.60;98.50
9668;DHT22;4872;48.316;10.650;2023-09-19T11:25:44;19.70;98.80
9668;DHT22;4872;48.316;10.650;2023-09-19T11:28:34;19.60;98.30
9668;DHT22;4872;48.316;10.650;2023-09-19T11:40:52;19.80;97.00
9668;DHT22;4872;48.316;10.650;2023-09-19T11:43:34;19.80;97.10
9668;DHT22;4872;48.316;10.650;2023-09-19T11:46:05;19.90;97.20
9668;DHT22;4872;48.316;10.650;2023-09-19T11:48:32;20.10;97.30
9668;DHT22;4872;48.316;10.650;2023-09-19T11:51:19;20.30;96.90
9668;DHT22;4872;48.316;10.650;2023-09-19T11:53:48;20.40;96.00
9668;DHT22;4872;48.316;10.650;2023-09-19T11:56:17;20.60;95.60
9668;DHT22;4872;48.316;10.650;2023-09-19T11:58:44;20.60;96.20
9668;DHT22;4872;48.316;10.650;2023-09-19T12:01:13;20.80;96.10
9668;DHT22;4872;48.316;10.650;2023-09-19T12:03:46;20.90;95.60
9668;DHT22;4872;48.316;10.650;2023-09-19T12:06:15;21.00;95.20
9668;DHT22;4872;48.316;10.650;2023-09-19T12:08:43;20.90;94.70
9668;DHT22;4872;48.316;10.650;2023-09-19T12:11:13;20.70;95.30
9668;DHT22;4872;48.316;10.650;2023-09-19T12:13:42;20.80;94.90
9668;DHT22;4872;48.316;10.650;2023-09-19T12:16:14;21.00;94.80
9668;DHT22;4872;48.316;10.650;2023-09-19T12:18:44;20.90;93.90
9668;DHT22;4872;48.316;10.650;2023-09-19T12:21:27;20.80;94.50
9668;DHT22;4872;48.316;10.650;2023-09-19T12:23:59;21.00;94.10
9668;DHT22;4872;48.316;10.650;2023-09-19T12:26:27;21.20;94.50
9668;DHT22;4872;48.316;10.650;2023-09-19T12:28:55;21.10;93.90
9668;DHT22;4872;48.316;10.650;2023-09-19T12:31:22;21.20;93.60
9668;DHT22;4872;48.316;10.650;2023-09-19T12:33:53;21.30;93.80
9668;DHT22;4872;48.316;10.650;2023-09-19T12:36:22;21.50;93.70
9668;DHT22;4872;48.316;10.650;2023-09-19T12:38:55;21.90;93.50
9668;DHT22;4872;48.316;10.650;2023-09-19T12:41:25;22.10;94.30
9668;DHT22;4872;48.316;10.650;2023-09-19T12:43:52;22.00;93.30
9668;DHT22;4872;48.316;10.650;2023-09-19T12:46:20;21.90;93.40
9668;DHT22;4872;48.316;10.650;2023-09-19T12:49:16;21.90;93.60
9668;DHT22;4872;48.316;10.650;2023-09-19T12:51:45;21.80;94.10
9668;DHT22;4872;48.316;10.650;2023-09-19T12:54:12;22.00;93.60
9668;DHT22;4872;48.316;10.650;2023-09-19T12:56:41;22.30;92.70
9668;DHT22;4872;48.316;10.650;2023-09-19T12:59:12;22.30;93.20
9668;DHT22;4872;48.316;10.650;2023-09-19T13:01:39;22.20;92.90
9668;DHT22;4872;48.316;10.650;2023-09-19T13:04:11;21.60;93.00
9668;DHT22;4872;48.316;10.650;2023-09-19T13:06:40;21.20;93.40
9668;DHT22;4872;48.316;10.650;2023-09-19T13:09:11;20.80;93.90
9668;DHT22;4872;48.316;10.650;2023-09-19T13:11:39;20.80;93.90
9668;DHT22;4872;48.316;10.650;2023-09-19T13:14:16;21.20;93.50
9668;DHT22;4872;48.316;10.650;2023-09-19T13:16:56;21.40;93.40
9668;DHT22;4872;48.316;10.650;2023-09-19T13:19:37;21.40;93.30
9668;DHT22;4872;48.316;10.650;2023-09-19T13:22:05;21.50;93.30
9668;DHT22;4872;48.316;10.650;2023-09-19T13:24:35;21.50;93.30
9668;DHT22;4872;48.316;10.650;2023-09-19T13:27:05;21.50;93.40
9668;DHT22;4872;48.316;10.650;2023-09-19T13:29:32;21.40;93.30
9668;DHT22;4872;48.316;10.650;2023-09-19T13:31:59;21.90;93.60
9668;DHT22;4872;48.316;10.650;2023-09-19T13:34:27;22.20;93.20
9668;DHT22;4872;48.316;10.650;2023-09-19T13:36:55;22.80;92.70
9668;DHT22;4872;48.316;10.650;2023-09-19T13:39:21;23.30;92.50
9668;DHT22;4872;48.316;10.650;2023-09-19T13:41:51;23.30;92.00
9668;DHT22;4872;48.316;10.650;2023-09-19T13:44:18;22.60;91.70
9668;DHT22;4872;48.316;10.650;2023-09-19T13:46:45;22.20;92.10
9668;DHT22;4872;48.316;10.650;2023-09-19T13:49:12;22.00;92.10
9668;DHT22;4872;48.316;10.650;2023-09-19T13:51:39;21.90;92.40
9668;DHT22;4872;48.316;10.650;2023-09-19T13:54:09;21.80;92.50
9668;DHT22;4872;48.316;10.650;2023-09-19T13:56:37;22.00;92.90
9668;DHT22;4872;48.316;10.650;2023-09-19T13:59:05;22.00;92.30
9668;DHT22;4872;48.316;10.650;2023-09-19T14:01:32;22.00;92.00
9668;DHT22;4872;48.316;10.650;2023-09-19T14:03:59;22.40;92.40
9668;DHT22;4872;48.316;10.650;2023-09-19T14:06:25;23.10;91.80
9668;DHT22;4872;48.316;10.650;2023-09-19T14:08:52;23.40;91.20
9668;DHT22;4872;48.316;10.650;2023-09-19T14:11:19;23.50;90.10
9668;DHT22;4872;48.316;10.650;2023-09-19T14:13:45;23.50;90.00
9668;DHT22;4872;48.316;10.650;2023-09-19T14:16:16;23.60;90.10
9668;DHT22;4872;48.316;10.650;2023-09-19T14:18:44;23.60;90.00
9668;DHT22;4872;48.316;10.650;2023-09-19T14:21:12;23.70;90.00
9668;DHT22;4872;48.316;10.650;2023-09-19T14:23:40;23.20;90.00
9668;DHT22;4872;48.316;10.650;2023-09-19T14:26:08;23.30;90.30
9668;DHT22;4872;48.316;10.650;2023-09-19T14:28:35;23.00;90.70
9668;DHT22;4872;48.316;10.650;2023-09-19T14:31:05;22.20;90.70
9668;DHT22;4872;48.316;10.650;2023-09-19T14:33:33;22.20;91.00
9668;DHT22;4872;48.316;10.650;2023-09-19T14:36:03;22.30;91.40
9668;DHT22;4872;48.316;10.650;2023-09-19T14:38:32;22.60;91.70
9668;DHT22;4872;48.316;10.650;2023-09-19T14:41:00;22.60;91.00
9668;DHT22;4872;48.316;10.650;2023-09-19T14:43:26;22.80;91.40
9668;DHT22;4872;48.316;10.650;2023-09-19T14:45:54;23.10;91.30
9668;DHT22;4872;48.316;10.650;2023-09-19T14:48:22;23.30;90.20
9668;DHT22;4872;48.316;10.650;2023-09-19T14:50:52;23.20;90.60
9668;DHT22;4872;48.316;10.650;2023-09-19T14:53:19;23.40;90.60
9668;DHT22;4872;48.316;10.650;2023-09-19T14:55:46;24.00;88.90
9668;DHT22;4872;48.316;10.650;2023-09-19T14:58:17;24.40;87.80
9668;DHT22;4872;48.316;10.650;2023-09-19T15:00:44;24.80;86.30
9668;DHT22;4872;48.316;10.650;2023-09-19T15:03:11;25.00;85.60
9668;DHT22;4872;48.316;10.650;2023-09-19T15:05:38;25.30;85.10
9668;DHT22;4872;48.316;10.650;2023-09-19T15:08:07;25.60;82.90
9668;DHT22;4872;48.316;10.650;2023-09-19T15:10:33;25.50;82.20
9668;DHT22;4872;48.316;10.650;2023-09-19T15:13:00;24.50;82.80
9668;DHT22;4872;48.316;10.650;2023-09-19T15:15:27;24.10;82.50
9668;DHT22;4872;48.316;10.650;2023-09-19T15:17:54;23.80;84.00
9668;DHT22;4872;48.316;10.650;2023-09-19T15:20:20;23.90;83.20
9668;DHT22;4872;48.316;10.650;2023-09-19T15:22:47;23.80;83.30
9668;DHT22;4872;48.316;10.650;2023-09-19T15:25:15;23.70;83.80
9668;DHT22;4872;48.316;10.650;2023-09-19T15:27:42;24.50;83.30
9668;DHT22;4872;48.316;10.650;2023-09-19T15:30:10;24.90;82.10
9668;DHT22;4872;48.316;10.650;2023-09-19T15:32:37;24.80;82.60
9668;DHT22;4872;48.316;10.650;2023-09-19T15:35:04;24.60;81.90
9668;DHT22;4872;48.316;10.650;2023-09-19T15:37:31;24.70;83.40
9668;DHT22;4872;48.316;10.650;2023-09-19T15:39:57;25.00;82.90
9668;DHT22;4872;48.316;10.650;2023-09-19T15:42:26;25.30;81.30
9668;DHT22;4872;48.316;10.650;2023-09-19T15:44:52;25.30;80.90
9668;DHT22;4872;48.316;10.650;2023-09-19T15:47:20;25.30;78.90
9668;DHT22;4872;48.316;10.650;2023-09-19T15:49:47;25.40;78.70
9668;DHT22;4872;48.316;10.650;2023-09-19T15:52:17;25.30;78.60
9668;DHT22;4872;48.316;10.650;2023-09-19T15:54:44;24.40;78.60
9668;DHT22;4872;48.316;10.650;2023-09-19T15:57:10;24.30;78.40
9668;DHT22;4872;48.316;10.650;2023-09-19T15:59:39;24.20;79.70
9668;DHT22;4872;48.316;10.650;2023-09-19T16:02:06;24.10;79.70
9668;DHT22;4872;48.316;10.650;2023-09-19T16:04:33;24.00;78.90
9668;DHT22;4872;48.316;10.650;2023-09-19T16:07:00;23.80;78.70
9668;DHT22;4872;48.316;10.650;2023-09-19T16:09:27;23.60;79.50
9668;DHT22;4872;48.316;10.650;2023-09-19T16:11:54;23.50;80.10
9668;DHT22;4872;48.316;10.650;2023-09-19T16:14:21;23.40;80.50
9668;DHT22;4872;48.316;10.650;2023-09-19T16:16:49;23.10;80.70
9668;DHT22;4872;48.316;10.650;2023-09-19T16:19:16;22.90;80.30
9668;DHT22;4872;48.316;10.650;2023-09-19T16:21:44;22.80;81.20
9668;DHT22;4872;48.316;10.650;2023-09-19T16:24:11;22.60;81.80
9668;DHT22;4872;48.316;10.650;2023-09-19T16:26:37;22.60;82.30
9668;DHT22;4872;48.316;10.650;2023-09-19T16:29:04;22.30;82.60
9668;DHT22;4872;48.316;10.650;2023-09-19T16:31:31;22.40;83.10
9668;DHT22;4872;48.316;10.650;2023-09-19T16:34:00;22.30;83.40
9668;DHT22;4872;48.316;10.650;2023-09-19T16:36:27;22.30;83.90
9668;DHT22;4872;48.316;10.650;2023-09-19T16:38:54;22.30;84.00
9668;DHT22;4872;48.316;10.650;2023-09-19T16:41:22;22.30;83.80
9668;DHT22;4872;48.316;10.650;2023-09-19T16:43:48;22.20;84.20
9668;DHT22;4872;48.316;10.650;2023-09-19T16:46:15;22.10;84.40
9668;DHT22;4872;48.316;10.650;2023-09-19T16:48:43;22.20;84.90
9668;DHT22;4872;48.316;10.650;2023-09-19T16:51:14;22.00;84.70
9668;DHT22;4872;48.316;10.650;2023-09-19T16:53:42;22.00;85.00
9668;DHT22;4872;48.316;10.650;2023-09-19T16:56:12;21.90;85.30
9668;DHT22;4872;48.316;10.650;2023-09-19T16:58:42;21.80;85.60
9668;DHT22;4872;48.316;10.650;2023-09-19T17:01:09;21.70;86.00
9668;DHT22;4872;48.316;10.650;2023-09-19T17:03:36;21.60;86.10
9668;DHT22;4872;48.316;10.650;2023-09-19T17:06:05;21.50;86.50
9668;DHT22;4872;48.316;10.650;2023-09-19T17:08:33;21.40;86.80
9668;DHT22;4872;48.316;10.650;2023-09-19T17:11:02;21.30;87.00
9668;DHT22;4872;48.316;10.650;2023-09-19T17:13:29;21.30;87.50
9668;DHT22;4872;48.316;10.650;2023-09-19T17:16:00;21.10;87.60
9668;DHT22;4872;48.316;10.650;2023-09-19T17:18:28;21.10;87.90
9668;DHT22;4872;48.316;10.650;2023-09-19T17:20:56;20.90;88.10
9668;DHT22;4872;48.316;10.650;2023-09-19T17:23:25;21.00;88.40
9668;DHT22;4872;48.316;10.650;2023-09-19T17:25:59;20.90;88.50
9668;DHT22;4872;48.316;10.650;2023-09-19T17:28:26;20.90;88.70
9668;DHT22;4872;48.316;10.650;2023-09-19T17:30:52;20.80;88.70
9668;DHT22;4872;48.316;10.650;2023-09-19T17:33:20;20.60;88.90
9668;DHT22;4872;48.316;10.650;2023-09-19T17:35:48;20.50;89.10
9668;DHT22;4872;48.316;10.650;2023-09-19T17:38:14;20.40;89.30
9668;DHT22;4872;48.316;10.650;2023-09-19T17:40:41;20.30;89.70
9668;DHT22;4872;48.316;10.650;2023-09-19T17:43:09;20.20;90.00
9668;DHT22;4872;48.316;10.650;2023-09-19T17:45:36;20.10;90.10
9668;DHT22;4872;48.316;10.650;2023-09-19T17:48:03;20.00;90.20
9668;DHT22;4872;48.316;10.650;2023-09-19T17:50:30;20.00;90.40
9668;DHT22;4872;48.316;10.650;2023-09-19T17:52:57;19.90;90.50
9668;DHT22;4872;48.316;10.650;2023-09-19T17:55:26;19.90;90.60
9668;DHT22;4872;48.316;10.650;2023-09-19T17:57:53;19.80;90.70
9668;DHT22;4872;48.316;10.650;2023-09-19T18:00:21;19.70;90.80
9668;DHT22;4872;48.316;10.650;2023-09-19T18:02:47;19.70;91.00
9668;DHT22;4872;48.316;10.650;2023-09-19T18:05:14;19.60;91.10
9668;DHT22;4872;48.316;10.650;2023-09-19T18:07:43;19.60;91.30
9668;DHT22;4872;48.316;10.650;2023-09-19T18:10:10;19.50;91.40
9668;DHT22;4872;48.316;10.650;2023-09-19T18:12:39;19.40;91.50
9668;DHT22;4872;48.316;10.650;2023-09-19T18:15:07;19.40;91.60
9668;DHT22;4872;48.316;10.650;2023-09-19T18:17:35;19.30;91.70
9668;DHT22;4872;48.316;10.650;2023-09-19T18:20:02;19.30;91.70
9668;DHT22;4872;48.316;10.650;2023-09-19T18:22:30;19.30;91.80
9668;DHT22;4872;48.316;10.650;2023-09-19T18:24:59;19.30;91.90
9668;DHT22;4872;48.316;10.650;2023-09-19T18:27:26;19.30;91.90
9668;DHT22;4872;48.316;10.650;2023-09-19T18:29:56;19.30;92.00
9668;DHT22;4872;48.316;10.650;2023-09-19T18:32:22;19.30;92.10
9668;DHT22;4872;48.316;10.650;2023-09-19T18:34:51;19.20;92.10
9668;DHT22;4872;48.316;10.650;2023-09-19T18:37:18;19.20;92.20
9668;DHT22;4872;48.316;10.650;2023-09-19T18:39:45;19.10;92.50
9668;DHT22;4872;48.316;10.650;2023-09-19T18:42:13;19.10;92.50
9668;DHT22;4872;48.316;10.650;2023-09-19T18:44:40;19.10;92.60
9668;DHT22;4872;48.316;10.650;2023-09-19T18:47:07;19.00;92.90
9668;DHT22;4872;48.316;10.650;2023-09-19T18:49:34;18.90;92.80
9668;DHT22;4872;48.316;10.650;2023-09-19T18:52:02;18.80;93.00
9668;DHT22;4872;48.316;10.650;2023-09-19T18:54:30;18.70;93.10
9668;DHT22;4872;48.316;10.650;2023-09-19T18:56:57;18.60;93.30
9668;DHT22;4872;48.316;10.650;2023-09-19T18:59:24;18.50;93.50
9668;DHT22;4872;48.316;10.650;2023-09-19T19:01:50;18.30;93.70
9668;DHT22;4872;48.316;10.650;2023-09-19T19:04:18;18.20;93.90
9668;DHT22;4872;48.316;10.650;2023-09-19T19:06:45;18.10;94.20
9668;DHT22;4872;48.316;10.650;2023-09-19T19:09:14;18.00;94.30
9668;DHT22;4872;48.316;10.650;2023-09-19T19:11:40;18.00;94.40
9668;DHT22;4872;48.316;10.650;2023-09-19T19:14:07;17.90;94.60
9668;DHT22;4872;48.316;10.650;2023-09-19T19:16:34;17.80;94.70
9668;DHT22;4872;48.316;10.650;2023-09-19T19:19:03;17.70;95.00
9668;DHT22;4872;48.316;10.650;2023-09-19T19:21:30;17.60;95.20
9668;DHT22;4872;48.316;10.650;2023-09-19T19:23:57;17.70;95.30
9668;DHT22;4872;48.316;10.650;2023-09-19T19:26:25;18.10;95.60
9668;DHT22;4872;48.316;10.650;2023-09-19T19:28:52;17.70;95.40
9668;DHT22;4872;48.316;10.650;2023-09-19T19:31:19;17.70;95.50
9668;DHT22;4872;48.316;10.650;2023-09-19T19:33:47;17.70;95.40
9668;DHT22;4872;48.316;10.650;2023-09-19T19:36:17;17.70;95.60
9668;DHT22;4872;48.316;10.650;2023-09-19T19:38:48;17.60;95.60
9668;DHT22;4872;48.316;10.650;2023-09-19T19:41:15;17.60;95.70
9668;DHT22;4872;48.316;10.650;2023-09-19T19:43:43;17.50;95.80
9668;DHT22;4872;48.316;10.650;2023-09-19T19:46:09;17.70;96.10
9668;DHT22;4872;48.316;10.650;2023-09-19T19:48:37;17.30;95.90
9668;DHT22;4872;48.316;10.650;2023-09-19T19:51:04;17.20;96.30
9668;DHT22;4872;48.316;10.650;2023-09-19T19:53:33;17.20;96.40
9668;DHT22;4872;48.316;10.650;2023-09-19T19:56:00;17.20;96.40
9668;DHT22;4872;48.316;10.650;2023-09-19T19:58:27;17.10;96.50
9668;DHT22;4872;48.316;10.650;2023-09-19T20:00:56;17.50;96.80
9668;DHT22;4872;48.316;10.650;2023-09-19T20:03:23;17.30;96.80
9668;DHT22;4872;48.316;10.650;2023-09-19T20:05:51;17.10;96.70
9668;DHT22;4872;48.316;10.650;2023-09-19T20:08:18;17.10;96.80
9668;DHT22;4872;48.316;10.650;2023-09-19T20:10:45;17.00;97.00
9668;DHT22;4872;48.316;10.650;2023-09-19T20:13:12;17.10;96.90
9668;DHT22;4872;48.316;10.650;2023-09-19T20:15:40;16.90;97.10